Ploërmel Loyat Airfield

LFRP · Morbihan, 布列塔尼半岛, 法国

使用的METAR站距离机场40 km。
罗盘
风向 的 风向 的 风向 到 风向 260° Ploërmel Loyat Airfield 10/28
风: 4 kt, 2 beaufort

4 kt

1 kt
改变
0 ft 1.000 2.000 3.000 4.000 5.000
CAVOK
METAR LFRV 031830Z AUTO 26004KT 220V290 CAVOK 07/02 Q1009

METAR Ploërmel Loyat Airfield - LFRP

Ploërmel Loyat Airfield是,法国中的小机场。 该机场位于纬度48,00185和经度-2,37909。 该机场有一条跑道: 10/28. 本场的ICAO机场代码为LFRP。 机场在Brest FIR中。

该航空气象观测是针对Vannes-Meucon Airport在2024年3月3日 19:30, 当地时间进行的。

机场观察

风向为260°,速度为4 kt。 风向在220°和290°之间变化。

天气为CAVOK。这意味着在5.000 ft或MSA(最低安全高度)以下(以较高者为准)以下没有云。这也意味着没有观测到积雨云或高耸的积云,可见度为10 km 或者更多或更高。此外,不会有雾,降雨或其他重要天气。

温度为7 °C,阵风为4 °C。 露点为2 °C,相对湿度为71%。 海平面上的气压为1009 hPa (QNH)。

白天

今天,太阳从07:45升起,在18:57降落。 这适用于Ploërmel Loyat Airfield,世界夏令时可能有所不同。 当地时间与世界标准时间之间的时差为+1 小时。 当前,没有夏令时有效。

公司介绍

在这个机场,你可以找到滑翔机飞行俱乐部 和 飞行俱乐部。 这个机场上的公司有Planeurs de Brocéliande 和 Ulm Club De BrocÉliande。

体会

到Vliegles.nl去找飞行课程,跳伞和其他飞行体验。 浏览页面,了解Ploërmel Loyat Airfield附近所有可用的活动。 你也可以使用搜索功能来寻找你所在地附近的特定飞行课程、跳伞或其他飞行体验。

跑道

Id 标题 侧风 逆风 侧风 %
10/28 095°-275° 1 kt 4 kt 26 %

逆风成分最大的方向会被突出显示,并用于横风计算。 这并不一定意味着这个方向在使用。

温度 & 天气

温度 7 °C
露点 2 °C
相对湿度 71%
风寒 4 °C
Kp-index 3 (0-9)

白天

日出
07:46 (12:09)
中午
13:22
日落
18:58

小工具

你想在你的网站上有一个关于Ploërmel Loyat Airfield的当前航空天气(METAR)的小部件吗?

显示HTML代码
?>